Weather at Worden Landing Strip [CLOSED]

Public forecast

Using degrees Fahrenheit for public forecast. Weather courtesy of forecast.io.

Closest aviation weather report (METAR) to Worden Landing Strip

Closest report is Crater Lake-Klamath Regional Airport, 9.8 nm (18.1 km) NE. Retrieved 2021/06/19 20:53 UTC (1 hour ago):

KLMT 192053Z VRB04KT 10SM CLR 31/04 A3000 RMK AO2 SLP107 T03110044 58010

Closest aviation forecast (TAF) to Worden Landing Strip

Closest forecast is Crater Lake-Klamath Regional Airport, 9.8 nm (18.1 km) NE. Retrieved 2021/06/19 18:22 UTC (4 hours ago):

TAF KLMT 191720Z 1918/2018 VRB03KT P6SM SKC FM192300 31012G18KT P6SM SKC FM200500 34005KT P6SM SKC